createdAt,value
2022-11-14T00:00:16.658Z,70.67
2022-11-14T00:03:02.947Z,71.17
2022-11-14T00:05:48.602Z,71.15
2022-11-14T00:08:33.734Z,70.29
2022-11-14T00:11:19.162Z,70.78
2022-11-14T00:14:04.407Z,70.79
2022-11-14T00:16:49.805Z,70.59
2022-11-14T00:19:35.558Z,70.46
2022-11-14T00:22:20.772Z,70.55
2022-11-14T00:25:06.076Z,72.05
2022-11-14T00:27:51.832Z,74.16
2022-11-14T00:30:37.320Z,75.72
2022-11-14T00:33:22.682Z,76.92
2022-11-14T00:36:08.181Z,78.86
2022-11-14T00:38:54.899Z,80.11
2022-11-14T00:41:40.735Z,81.56
2022-11-14T00:44:26.229Z,82.60
2022-11-14T00:47:11.893Z,83.64
2022-11-14T00:49:57.508Z,84.06
2022-11-14T00:52:42.662Z,83.79
2022-11-14T00:55:28.202Z,83.31
2022-11-14T00:58:13.377Z,83.27
2022-11-14T01:00:59.641Z,82.97
2022-11-14T01:03:47.514Z,82.55
2022-11-14T01:06:32.885Z,82.66
2022-11-14T01:09:18.520Z,82.46
2022-11-14T01:12:04.224Z,82.44
2022-11-14T01:14:49.618Z,82.11
2022-11-14T01:17:34.669Z,80.25
2022-11-14T01:20:19.704Z,79.92
2022-11-14T01:23:05.140Z,79.63
2022-11-14T01:25:50.258Z,78.43
2022-11-14T01:28:36.093Z,78.68
2022-11-14T01:31:22.720Z,78.27
2022-11-14T01:34:08.209Z,77.32
2022-11-14T01:36:53.205Z,77.18
2022-11-14T01:39:38.326Z,76.88
2022-11-14T01:42:27.273Z,77.00
2022-11-14T01:45:31.495Z,76.73
2022-11-14T01:48:20.660Z,75.47
2022-11-14T01:51:09.220Z,74.76
2022-11-14T01:53:56.121Z,74.66
2022-11-14T01:56:45.689Z,74.65
2022-11-14T01:59:38.631Z,74.05
2022-11-14T02:02:25.137Z,73.65
2022-11-14T02:05:11.047Z,73.81
2022-11-14T02:07:56.385Z,74.23
2022-11-14T02:10:41.618Z,74.52
2022-11-14T02:13:27.313Z,74.61
2022-11-14T02:16:15.790Z,74.29
2022-11-14T02:19:01.073Z,74.64
2022-11-14T02:21:46.853Z,74.50
2022-11-14T02:24:31.954Z,74.64
2022-11-14T02:27:16.844Z,74.44
2022-11-14T02:30:06.783Z,74.37
2022-11-14T02:35:57.228Z,73.67
2022-11-14T02:38:42.534Z,73.28
2022-11-14T02:41:28.234Z,73.14
2022-11-14T02:44:13.714Z,72.88
2022-11-14T02:46:59.961Z,71.06
2022-11-14T02:49:45.339Z,68.89
2022-11-14T02:52:30.576Z,69.31
2022-11-14T02:55:16.292Z,68.43
2022-11-14T02:58:01.573Z,67.54
2022-11-14T03:01:13.698Z,66.44
2022-11-14T03:03:52.428Z,66.03
2022-11-14T03:06:37.747Z,66.34
2022-11-14T03:09:22.864Z,66.25
2022-11-14T03:12:08.334Z,66.60
2022-11-14T03:14:54.517Z,65.91
2022-11-14T03:17:40.117Z,65.27
2022-11-14T03:20:25.594Z,64.54
2022-11-14T03:23:10.941Z,64.60
2022-11-14T03:25:59.181Z,64.29
2022-11-14T03:28:44.959Z,64.48
2022-11-14T03:31:30.037Z,64.59
2022-11-14T03:34:15.520Z,65.14
2022-11-14T03:37:00.954Z,65.06
2022-11-14T03:39:46.315Z,65.38
2022-11-14T03:42:35.293Z,65.87
2022-11-14T03:45:23.532Z,65.48
2022-11-14T03:48:09.100Z,64.08
2022-11-14T03:50:55.976Z,63.13
2022-11-14T03:53:41.204Z,62.91
2022-11-14T03:56:27.489Z,62.96
2022-11-14T03:59:13.267Z,63.64
2022-11-14T04:01:58.749Z,64.04
2022-11-14T04:04:44.048Z,64.15
2022-11-14T04:07:30.049Z,64.15
2022-11-14T04:10:15.485Z,64.01
2022-11-14T04:13:00.955Z,64.22
2022-11-14T04:15:46.712Z,63.79
2022-11-14T04:18:32.440Z,63.42
2022-11-14T04:21:17.662Z,63.73
2022-11-14T04:24:08.491Z,63.25
2022-11-14T04:26:56.410Z,63.35
2022-11-14T04:29:41.962Z,62.95
2022-11-14T04:32:27.540Z,63.22
2022-11-14T04:35:12.827Z,63.32
2022-11-14T04:37:58.050Z,62.79
2022-11-14T04:40:48.598Z,62.98
2022-11-14T04:43:34.090Z,62.10
2022-11-14T04:46:19.541Z,62.36
2022-11-14T04:49:04.587Z,62.47
2022-11-14T04:51:49.973Z,62.43
2022-11-14T04:54:35.616Z,62.25
2022-11-14T04:57:21.063Z,62.54
2022-11-14T05:00:07.185Z,63.02
2022-11-14T05:02:52.272Z,63.47
2022-11-14T05:05:41.759Z,63.17
2022-11-14T05:08:28.265Z,63.50
2022-11-14T05:11:14.823Z,63.76
2022-11-14T05:13:59.975Z,63.71
2022-11-14T05:16:45.855Z,63.49
2022-11-14T05:19:31.027Z,63.50
2022-11-14T05:22:16.117Z,63.71
2022-11-14T05:25:02.340Z,63.99
2022-11-14T05:27:47.592Z,63.68
2022-11-14T05:30:33.268Z,63.48
2022-11-14T05:33:18.882Z,63.72
2022-11-14T05:36:05.218Z,63.24
2022-11-14T05:41:50.257Z,63.94
2022-11-14T05:44:35.565Z,64.10
2022-11-14T05:47:20.978Z,64.23
2022-11-14T05:50:09.916Z,64.44
2022-11-14T05:52:56.495Z,64.52
2022-11-14T05:55:41.790Z,64.96
2022-11-14T05:58:27.287Z,65.08
2022-11-14T06:01:17.244Z,64.95
2022-11-14T06:04:02.753Z,64.82
2022-11-14T06:06:47.853Z,65.09
2022-11-14T06:09:33.130Z,64.96
2022-11-14T06:12:18.732Z,65.13
2022-11-14T06:15:04.758Z,65.09
2022-11-14T06:17:52.235Z,64.98
2022-11-14T06:20:37.736Z,65.42
2022-11-14T06:23:24.932Z,64.74
2022-11-14T06:26:25.799Z,64.84
2022-11-14T06:29:13.980Z,65.32
2022-11-14T06:31:59.105Z,64.84
2022-11-14T06:34:44.635Z,64.50
2022-11-14T06:37:33.538Z,64.34
2022-11-14T06:40:19.202Z,63.99
2022-11-14T06:43:04.918Z,62.72
2022-11-14T06:45:53.379Z,62.06
2022-11-14T06:48:39.055Z,62.22
2022-11-14T06:51:30.490Z,62.26
2022-11-14T06:54:15.811Z,61.59
2022-11-14T06:57:01.456Z,60.86
2022-11-14T06:59:48.223Z,60.07
2022-11-14T07:02:33.532Z,59.52
2022-11-14T07:05:18.864Z,59.00
2022-11-14T07:08:04.734Z,58.58
2022-11-14T07:10:50.235Z,58.22
2022-11-14T07:13:36.545Z,57.65
2022-11-14T07:16:26.055Z,57.01
2022-11-14T07:19:11.556Z,56.79
2022-11-14T07:22:04.432Z,56.21
2022-11-14T07:24:50.497Z,55.29
2022-11-14T07:27:36.106Z,55.08
2022-11-14T07:30:22.128Z,54.61
2022-11-14T07:33:07.763Z,53.94
2022-11-14T07:35:53.367Z,53.04
2022-11-14T07:38:38.730Z,53.11
2022-11-14T07:41:25.559Z,51.33
2022-11-14T07:44:11.144Z,51.87
2022-11-14T07:46:56.655Z,51.43
2022-11-14T07:49:42.288Z,51.11
2022-11-14T07:52:27.691Z,50.48
2022-11-14T07:55:12.836Z,48.66
2022-11-14T07:58:04.512Z,48.84
2022-11-14T08:00:49.671Z,48.29
2022-11-14T08:03:35.431Z,47.94
2022-11-14T08:06:21.641Z,46.75
2022-11-14T08:09:09.157Z,47.36
2022-11-14T08:11:57.397Z,47.02
2022-11-14T08:14:42.608Z,44.96
2022-11-14T08:17:27.924Z,45.67
2022-11-14T08:20:16.597Z,45.79
2022-11-14T08:23:02.134Z,44.95
2022-11-14T08:25:47.904Z,44.33
2022-11-14T08:28:35.902Z,44.54
2022-11-14T08:31:23.237Z,43.83
2022-11-14T08:34:09.971Z,43.65
2022-11-14T08:36:57.454Z,42.60
2022-11-14T08:39:45.417Z,43.33
2022-11-14T08:42:34.225Z,42.77
2022-11-14T08:45:19.539Z,42.17
2022-11-14T08:48:04.625Z,41.37
2022-11-14T08:50:55.669Z,41.06
2022-11-14T08:53:41.164Z,41.62
2022-11-14T08:56:26.422Z,40.21
2022-11-14T08:59:11.596Z,40.61
2022-11-14T09:01:57.319Z,40.93
2022-11-14T09:04:43.019Z,40.62
2022-11-14T09:07:29.062Z,39.46
2022-11-14T09:10:14.707Z,39.62
2022-11-14T09:13:09.910Z,39.60
2022-11-14T09:16:13.512Z,39.16
2022-11-14T09:18:58.683Z,38.95
2022-11-14T09:21:43.806Z,39.16
2022-11-14T09:27:31.296Z,38.21
2022-11-14T09:30:19.775Z,37.98
2022-11-14T09:33:11.241Z,37.40
2022-11-14T09:36:00.854Z,36.80
2022-11-14T09:38:46.432Z,36.70
2022-11-14T09:41:34.605Z,36.68
2022-11-14T09:44:34.933Z,36.79
2022-11-14T09:47:21.942Z,36.40
2022-11-14T09:50:12.929Z,36.76
2022-11-14T09:52:59.327Z,36.80
2022-11-14T09:55:44.569Z,35.66
2022-11-14T09:58:30.324Z,36.92
2022-11-14T10:01:25.400Z,37.10
2022-11-14T10:04:19.633Z,36.62
2022-11-14T10:07:08.327Z,36.96
2022-11-14T10:09:59.287Z,36.86
2022-11-14T10:13:05.063Z,35.54
2022-11-14T10:15:55.242Z,35.93
2022-11-14T10:18:43.592Z,36.11
2022-11-14T10:21:28.955Z,35.77
2022-11-14T10:24:14.352Z,35.39
2022-11-14T10:27:03.895Z,35.21
2022-11-14T10:29:58.383Z,34.74
2022-11-14T10:33:03.435Z,35.46
2022-11-14T10:35:51.168Z,35.31
2022-11-14T10:38:43.680Z,34.58
2022-11-14T10:41:55.093Z,34.39
2022-11-14T10:44:39.375Z,34.67
2022-11-14T10:47:24.834Z,34.84
2022-11-14T10:50:20.206Z,34.67
2022-11-14T10:53:07.439Z,34.16
2022-11-14T10:56:07.938Z,34.06
2022-11-14T10:58:53.399Z,33.45
2022-11-14T11:01:38.901Z,34.28
2022-11-14T11:04:32.123Z,34.90
2022-11-14T11:08:10.194Z,34.77
2022-11-14T11:11:25.180Z,35.08
2022-11-14T11:14:19.660Z,35.41
2022-11-14T11:17:10.496Z,34.84
2022-11-14T11:19:55.871Z,34.54
2022-11-14T11:22:43.468Z,34.37
2022-11-14T11:25:29.689Z,34.73
2022-11-14T11:28:19.141Z,34.94
2022-11-14T11:31:06.343Z,34.83
2022-11-14T11:33:52.090Z,34.82
2022-11-14T11:36:40.575Z,34.29
2022-11-14T11:39:27.585Z,33.98
2022-11-14T11:43:36.909Z,34.93
2022-11-14T11:45:57.007Z,35.90
2022-11-14T11:48:42.703Z,35.20
2022-11-14T11:51:27.988Z,35.63
2022-11-14T11:54:17.332Z,35.88
2022-11-14T11:57:02.899Z,35.92
2022-11-14T11:59:49.711Z,35.49
2022-11-14T12:02:37.524Z,36.60
2022-11-14T12:05:26.908Z,35.63
2022-11-14T12:08:41.143Z,35.21
2022-11-14T12:11:27.134Z,35.88
2022-11-14T12:14:31.277Z,36.09
2022-11-14T12:17:25.834Z,36.26
2022-11-14T12:20:17.037Z,36.41
2022-11-14T12:23:21.407Z,36.39
2022-11-14T12:26:13.977Z,36.62
2022-11-14T12:28:59.590Z,36.74
2022-11-14T12:31:45.394Z,36.39
2022-11-14T12:34:35.549Z,37.18
2022-11-14T12:37:22.739Z,38.08
2022-11-14T12:40:09.049Z,38.19
2022-11-14T12:42:54.761Z,38.90
2022-11-14T12:45:40.743Z,39.28
2022-11-14T12:48:26.294Z,39.27
2022-11-14T12:51:32.196Z,39.51
2022-11-14T12:54:36.207Z,42.38
2022-11-14T12:57:50.876Z,44.19
2022-11-14T13:00:38.883Z,46.35
2022-11-14T13:03:36.916Z,47.52
2022-11-14T13:06:40.816Z,48.03
2022-11-14T13:09:27.018Z,48.53
2022-11-14T13:12:37.855Z,49.26
2022-11-14T13:16:00.977Z,49.56
2022-11-14T13:19:20.236Z,50.45
2022-11-14T13:22:12.005Z,50.37
2022-11-14T13:25:10.523Z,50.71
2022-11-14T13:28:08.065Z,51.31
2022-11-14T13:31:14.413Z,51.84
2022-11-14T13:34:02.841Z,52.37
2022-11-14T13:36:48.424Z,52.79
2022-11-14T13:39:52.582Z,52.92
2022-11-14T13:42:58.351Z,53.51
2022-11-14T13:46:01.553Z,53.20
2022-11-14T13:48:48.798Z,53.68
2022-11-14T13:51:43.468Z,53.95
2022-11-14T13:54:29.548Z,54.30
2022-11-14T13:57:15.462Z,54.43
2022-11-14T14:00:21.214Z,54.59
2022-11-14T14:03:16.011Z,55.13
2022-11-14T14:06:08.567Z,55.56
2022-11-14T14:08:57.112Z,56.03
2022-11-14T14:11:43.358Z,56.16
2022-11-14T14:14:47.858Z,56.41
2022-11-14T14:17:42.613Z,56.55
2022-11-14T14:20:28.524Z,56.85
2022-11-14T14:23:32.736Z,56.92
2022-11-14T14:26:27.418Z,56.88
2022-11-14T14:29:23.664Z,57.21
2022-11-14T14:32:14.149Z,57.96
2022-11-14T14:35:01.000Z,58.32
2022-11-14T14:40:54.264Z,58.30
2022-11-14T14:43:40.718Z,58.06
2022-11-14T14:46:30.018Z,58.11
2022-11-14T14:49:23.094Z,58.69
2022-11-14T14:52:28.834Z,58.97
2022-11-14T14:55:35.731Z,59.40
2022-11-14T14:58:26.141Z,59.71
2022-11-14T15:01:19.308Z,59.91
2022-11-14T15:04:14.684Z,60.12
2022-11-14T15:07:00.603Z,60.31
2022-11-14T15:09:53.395Z,60.28
2022-11-14T15:12:39.372Z,60.15
2022-11-14T15:15:27.820Z,60.82
2022-11-14T15:18:34.161Z,61.27
2022-11-14T15:21:27.473Z,60.97
2022-11-14T15:24:14.152Z,61.43
2022-11-14T15:26:59.687Z,61.62
2022-11-14T15:29:46.423Z,61.03
2022-11-14T15:32:32.145Z,60.55
2022-11-14T15:35:25.157Z,60.33
2022-11-14T15:38:41.821Z,60.24
2022-11-14T15:41:20.468Z,59.72
2022-11-14T15:44:06.184Z,59.44
2022-11-14T15:46:51.899Z,59.25
2022-11-14T15:49:37.588Z,59.17
2022-11-14T15:52:28.812Z,59.21
2022-11-14T15:55:21.686Z,59.10
2022-11-14T16:01:17.484Z,58.94
2022-11-14T16:04:03.037Z,59.09
2022-11-14T16:06:48.753Z,58.88
2022-11-14T16:09:34.862Z,58.84
2022-11-14T16:12:20.260Z,58.83
2022-11-14T16:15:06.039Z,58.76
2022-11-14T16:17:51.673Z,59.05
2022-11-14T16:20:39.688Z,58.61
2022-11-14T16:23:24.912Z,58.24
2022-11-14T16:26:10.490Z,58.27
2022-11-14T16:28:57.262Z,58.16
2022-11-14T16:31:42.823Z,58.21
2022-11-14T16:34:28.522Z,58.17
2022-11-14T16:37:14.469Z,58.15
2022-11-14T16:39:59.867Z,58.09
2022-11-14T16:42:48.090Z,57.54
2022-11-14T16:45:34.184Z,57.65
2022-11-14T16:48:19.753Z,57.44
2022-11-14T16:51:20.175Z,57.26
2022-11-14T16:54:11.299Z,57.13
2022-11-14T16:56:57.635Z,56.94
2022-11-14T16:59:42.855Z,57.06
2022-11-14T17:02:30.323Z,56.92
2022-11-14T17:05:16.539Z,56.81
2022-11-14T17:08:02.173Z,56.83
2022-11-14T17:10:47.701Z,57.09
2022-11-14T17:13:33.364Z,57.13
2022-11-14T17:16:19.811Z,56.69
2022-11-14T17:19:05.585Z,56.78
2022-11-14T17:21:50.910Z,56.87
2022-11-14T17:24:36.568Z,56.89
2022-11-14T17:27:21.993Z,56.93
2022-11-14T17:30:10.433Z,56.91
2022-11-14T17:33:02.526Z,56.16
2022-11-14T17:35:52.333Z,56.27
2022-11-14T17:38:38.153Z,56.04
2022-11-14T17:41:24.195Z,56.23
2022-11-14T17:44:10.005Z,56.25
2022-11-14T17:46:56.183Z,56.25
2022-11-14T17:49:41.727Z,56.42
2022-11-14T17:52:27.451Z,56.31
2022-11-14T17:55:15.725Z,55.41
2022-11-14T17:58:01.176Z,55.64
2022-11-14T18:00:46.460Z,55.40
2022-11-14T18:03:31.868Z,55.36
2022-11-14T18:06:21.277Z,55.63
2022-11-14T18:09:10.189Z,55.88
2022-11-14T18:11:58.613Z,55.99
2022-11-14T18:14:44.213Z,55.68
2022-11-14T18:17:31.837Z,55.62
2022-11-14T18:20:17.893Z,55.68
2022-11-14T18:23:03.198Z,55.56
2022-11-14T18:25:49.055Z,55.29
2022-11-14T18:28:34.495Z,55.56
2022-11-14T18:31:22.302Z,55.23
2022-11-14T18:34:07.980Z,55.36
2022-11-14T18:36:53.396Z,55.44
2022-11-14T18:39:43.875Z,55.18
2022-11-14T18:42:31.735Z,55.40
2022-11-14T18:45:17.419Z,55.81
2022-11-14T18:48:03.031Z,55.66
2022-11-14T18:50:48.746Z,55.38
2022-11-14T18:53:34.654Z,55.54
2022-11-14T18:56:26.616Z,55.81
2022-11-14T18:59:12.417Z,55.77
2022-11-14T19:01:58.511Z,55.57
2022-11-14T19:04:44.004Z,55.50
2022-11-14T19:07:30.313Z,55.03
2022-11-14T19:10:18.937Z,55.28
2022-11-14T19:13:04.488Z,55.23
2022-11-14T19:15:50.078Z,55.24
2022-11-14T19:18:37.151Z,55.06
2022-11-14T19:21:22.408Z,55.21
2022-11-14T19:24:07.987Z,54.26
2022-11-14T19:26:55.440Z,54.21
2022-11-14T19:29:41.006Z,54.10
2022-11-14T19:32:26.617Z,54.13
2022-11-14T19:35:17.235Z,53.91
2022-11-14T19:38:05.482Z,53.89
2022-11-14T19:40:51.848Z,54.22
2022-11-14T19:43:38.270Z,54.37
2022-11-14T19:46:25.416Z,54.52
2022-11-14T19:49:10.930Z,54.35
2022-11-14T19:51:56.749Z,53.84
2022-11-14T19:54:42.679Z,53.75
2022-11-14T20:00:30.066Z,53.50
2022-11-14T20:03:29.325Z,53.98
2022-11-14T20:06:16.235Z,54.07
2022-11-14T20:09:02.527Z,54.14
2022-11-14T20:11:47.897Z,54.13
2022-11-14T20:14:36.055Z,53.93
2022-11-14T20:17:21.268Z,53.49
2022-11-14T20:20:07.122Z,53.76
2022-11-14T20:22:52.328Z,53.39
2022-11-14T20:25:38.302Z,53.54
2022-11-14T20:28:23.760Z,53.40
2022-11-14T20:31:14.179Z,53.05
2022-11-14T20:33:59.354Z,52.29
2022-11-14T20:39:56.552Z,52.83
2022-11-14T20:42:41.917Z,52.75
2022-11-14T20:45:27.503Z,52.85
2022-11-14T20:48:13.143Z,52.85
2022-11-14T20:51:02.791Z,52.98
2022-11-14T20:53:48.693Z,53.03
2022-11-14T20:56:34.131Z,52.76
2022-11-14T20:59:19.695Z,52.85
2022-11-14T21:02:05.216Z,52.85
2022-11-14T21:04:50.528Z,53.30
2022-11-14T21:07:35.559Z,52.90
2022-11-14T21:10:39.321Z,52.77
2022-11-14T21:13:43.426Z,52.96
2022-11-14T21:16:32.659Z,52.99
2022-11-14T21:19:18.422Z,53.20
2022-11-14T21:22:03.915Z,53.42
2022-11-14T21:24:49.514Z,53.03
2022-11-14T21:27:34.713Z,52.38
2022-11-14T21:30:20.477Z,52.65
2022-11-14T21:33:05.973Z,52.89
2022-11-14T21:35:51.961Z,52.74
2022-11-14T21:38:37.627Z,52.33
2022-11-14T21:41:23.435Z,52.33
2022-11-14T21:44:09.634Z,52.59
2022-11-14T21:46:54.845Z,52.69
2022-11-14T21:49:40.209Z,52.90
2022-11-14T21:52:25.322Z,53.26
2022-11-14T21:55:10.325Z,53.66
2022-11-14T21:57:56.807Z,53.44
2022-11-14T22:00:42.078Z,52.97
2022-11-14T22:03:46.254Z,53.14
2022-11-14T22:06:31.854Z,53.08
2022-11-14T22:09:17.461Z,53.03
2022-11-14T22:12:03.269Z,53.43
2022-11-14T22:14:48.848Z,53.57
2022-11-14T22:17:36.715Z,52.95
2022-11-14T22:20:23.561Z,52.82
2022-11-14T22:23:09.095Z,53.06
2022-11-14T22:25:58.640Z,52.44
2022-11-14T22:28:43.981Z,52.36
2022-11-14T22:31:29.588Z,52.11
2022-11-14T22:34:16.994Z,51.83
2022-11-14T22:37:02.274Z,51.88
2022-11-14T22:39:47.274Z,51.72
2022-11-14T22:42:32.912Z,51.82
2022-11-14T22:45:18.486Z,51.99
2022-11-14T22:48:06.508Z,52.13
2022-11-14T22:50:58.806Z,52.19
2022-11-14T22:53:54.495Z,52.14
2022-11-14T22:56:40.753Z,52.72
2022-11-14T22:59:26.318Z,52.67
2022-11-14T23:02:11.857Z,53.02
2022-11-14T23:04:57.413Z,52.40
2022-11-14T23:07:43.035Z,52.23
2022-11-14T23:10:28.686Z,52.03
2022-11-14T23:13:14.275Z,52.08
2022-11-14T23:16:02.031Z,52.33
2022-11-14T23:18:47.716Z,52.56
2022-11-14T23:21:37.736Z,52.71
2022-11-14T23:24:23.310Z,52.43
2022-11-14T23:27:08.422Z,52.45
2022-11-14T23:29:54.132Z,52.63
2022-11-14T23:32:39.589Z,52.75
2022-11-14T23:35:25.181Z,52.72
2022-11-14T23:38:10.886Z,52.77
2022-11-14T23:40:57.117Z,53.14
2022-11-14T23:43:42.553Z,53.14
2022-11-14T23:46:27.551Z,52.97
2022-11-14T23:49:13.133Z,53.42
2022-11-14T23:51:58.691Z,52.87
2022-11-14T23:54:44.211Z,53.11
2022-11-14T23:57:30.946Z,52.93
